sensor_id;sensor_type;location;lat;lon;timestamp;temperature;humidity
10968;DHT22;5536;49.602;10.980;2023-05-29T00:00:01;15.20;99.90
10968;DHT22;5536;49.602;10.980;2023-05-29T00:02:32;15.20;99.90
10968;DHT22;5536;49.602;10.980;2023-05-29T00:04:59;15.20;99.90
10968;DHT22;5536;49.602;10.980;2023-05-29T00:07:28;15.10;99.90
10968;DHT22;5536;49.602;10.980;2023-05-29T00:09:55;14.90;99.90
10968;DHT22;5536;49.602;10.980;2023-05-29T00:12:22;14.80;99.90
10968;DHT22;5536;49.602;10.980;2023-05-29T00:14:49;14.70;99.90
10968;DHT22;5536;49.602;10.980;2023-05-29T00:17:16;14.70;99.90
10968;DHT22;5536;49.602;10.980;2023-05-29T00:19:44;14.60;99.90
10968;DHT22;5536;49.602;10.980;2023-05-29T00:22:11;14.70;99.90
10968;DHT22;5536;49.602;10.980;2023-05-29T00:24:39;14.60;99.90
10968;DHT22;5536;49.602;10.980;2023-05-29T00:27:06;14.70;99.90
10968;DHT22;5536;49.602;10.980;2023-05-29T00:29:34;14.70;99.90
10968;DHT22;5536;49.602;10.980;2023-05-29T00:32:01;14.60;99.90
10968;DHT22;5536;49.602;10.980;2023-05-29T00:34:28;14.80;99.90
10968;DHT22;5536;49.602;10.980;2023-05-29T00:36:56;14.90;99.90
10968;DHT22;5536;49.602;10.980;2023-05-29T00:39:23;14.90;99.90
10968;DHT22;5536;49.602;10.980;2023-05-29T00:41:50;14.70;99.90
10968;DHT22;5536;49.602;10.980;2023-05-29T00:44:17;14.70;99.90
10968;DHT22;5536;49.602;10.980;2023-05-29T00:46:45;14.60;99.90
10968;DHT22;5536;49.602;10.980;2023-05-29T00:49:13;14.60;99.90
10968;DHT22;5536;49.602;10.980;2023-05-29T00:51:41;14.60;99.90
10968;DHT22;5536;49.602;10.980;2023-05-29T00:54:12;14.40;99.90
10968;DHT22;5536;49.602;10.980;2023-05-29T00:56:40;14.40;99.90
10968;DHT22;5536;49.602;10.980;2023-05-29T00:59:09;14.30;99.90
10968;DHT22;5536;49.602;10.980;2023-05-29T01:01:36;14.20;99.90
10968;DHT22;5536;49.602;10.980;2023-05-29T01:04:03;14.30;99.90
10968;DHT22;5536;49.602;10.980;2023-05-29T01:06:32;14.30;99.90
10968;DHT22;5536;49.602;10.980;2023-05-29T01:08:59;14.30;99.90
10968;DHT22;5536;49.602;10.980;2023-05-29T01:11:33;14.40;99.90
10968;DHT22;5536;49.602;10.980;2023-05-29T01:14:06;14.40;99.90
10968;DHT22;5536;49.602;10.980;2023-05-29T01:16:42;14.20;99.90
10968;DHT22;5536;49.602;10.980;2023-05-29T01:19:20;14.20;99.90
10968;DHT22;5536;49.602;10.980;2023-05-29T01:21:58;14.20;99.90
10968;DHT22;5536;49.602;10.980;2023-05-29T01:24:35;14.20;99.90
10968;DHT22;5536;49.602;10.980;2023-05-29T01:27:05;14.10;99.90
10968;DHT22;5536;49.602;10.980;2023-05-29T01:29:38;14.00;99.90
10968;DHT22;5536;49.602;10.980;2023-05-29T01:32:06;13.80;99.90
10968;DHT22;5536;49.602;10.980;2023-05-29T01:34:33;13.60;99.90
10968;DHT22;5536;49.602;10.980;2023-05-29T01:37:00;13.60;99.90
10968;DHT22;5536;49.602;10.980;2023-05-29T01:39:27;13.50;99.90
10968;DHT22;5536;49.602;10.980;2023-05-29T01:41:55;13.40;99.90
10968;DHT22;5536;49.602;10.980;2023-05-29T01:44:24;13.40;99.90
10968;DHT22;5536;49.602;10.980;2023-05-29T01:46:52;13.60;99.90
10968;DHT22;5536;49.602;10.980;2023-05-29T01:49:20;13.50;99.90
10968;DHT22;5536;49.602;10.980;2023-05-29T01:51:50;13.40;99.90
10968;DHT22;5536;49.602;10.980;2023-05-29T01:54:17;13.40;99.90
10968;DHT22;5536;49.602;10.980;2023-05-29T01:56:46;13.30;99.90
10968;DHT22;5536;49.602;10.980;2023-05-29T01:59:13;13.40;99.90
10968;DHT22;5536;49.602;10.980;2023-05-29T02:01:42;13.50;99.90
10968;DHT22;5536;49.602;10.980;2023-05-29T02:04:09;13.40;99.90
10968;DHT22;5536;49.602;10.980;2023-05-29T02:06:36;13.40;99.90
10968;DHT22;5536;49.602;10.980;2023-05-29T02:09:03;13.40;99.90
10968;DHT22;5536;49.602;10.980;2023-05-29T02:11:31;13.20;99.90
10968;DHT22;5536;49.602;10.980;2023-05-29T02:13:58;13.20;99.90
10968;DHT22;5536;49.602;10.980;2023-05-29T02:16:27;13.10;99.90
10968;DHT22;5536;49.602;10.980;2023-05-29T02:18:55;13.10;99.90
10968;DHT22;5536;49.602;10.980;2023-05-29T02:21:23;13.10;99.90
10968;DHT22;5536;49.602;10.980;2023-05-29T02:23:50;13.00;99.90
10968;DHT22;5536;49.602;10.980;2023-05-29T02:26:17;12.80;99.90
10968;DHT22;5536;49.602;10.980;2023-05-29T02:28:44;12.90;99.90
10968;DHT22;5536;49.602;10.980;2023-05-29T02:31:11;13.20;99.90
10968;DHT22;5536;49.602;10.980;2023-05-29T02:33:38;13.30;99.90
10968;DHT22;5536;49.602;10.980;2023-05-29T02:36:07;13.10;99.90
10968;DHT22;5536;49.602;10.980;2023-05-29T02:38:35;12.80;99.90
10968;DHT22;5536;49.602;10.980;2023-05-29T02:41:02;12.70;99.90
10968;DHT22;5536;49.602;10.980;2023-05-29T02:43:29;12.50;99.90
10968;DHT22;5536;49.602;10.980;2023-05-29T02:45:56;12.40;99.90
10968;DHT22;5536;49.602;10.980;2023-05-29T02:48:23;12.30;99.90
10968;DHT22;5536;49.602;10.980;2023-05-29T02:50:51;12.20;99.90
10968;DHT22;5536;49.602;10.980;2023-05-29T02:53:20;12.10;99.90
10968;DHT22;5536;49.602;10.980;2023-05-29T02:55:47;12.00;99.90
10968;DHT22;5536;49.602;10.980;2023-05-29T02:58:14;12.00;99.90
10968;DHT22;5536;49.602;10.980;2023-05-29T03:00:42;12.00;99.90
10968;DHT22;5536;49.602;10.980;2023-05-29T03:03:09;12.10;99.90
10968;DHT22;5536;49.602;10.980;2023-05-29T03:05:36;12.10;99.90
10968;DHT22;5536;49.602;10.980;2023-05-29T03:08:03;12.00;99.90
10968;DHT22;5536;49.602;10.980;2023-05-29T03:10:31;12.00;99.90
10968;DHT22;5536;49.602;10.980;2023-05-29T03:12:58;12.20;99.90
10968;DHT22;5536;49.602;10.980;2023-05-29T03:15:25;12.20;99.90
10968;DHT22;5536;49.602;10.980;2023-05-29T03:17:52;12.20;99.90
10968;DHT22;5536;49.602;10.980;2023-05-29T03:20:19;12.20;99.90
10968;DHT22;5536;49.602;10.980;2023-05-29T03:22:46;12.20;99.90
10968;DHT22;5536;49.602;10.980;2023-05-29T03:25:13;12.30;99.90
10968;DHT22;5536;49.602;10.980;2023-05-29T03:27:41;12.20;99.90
10968;DHT22;5536;49.602;10.980;2023-05-29T03:30:09;12.20;99.90
10968;DHT22;5536;49.602;10.980;2023-05-29T03:32:36;12.10;99.90
10968;DHT22;5536;49.602;10.980;2023-05-29T03:35:03;12.20;99.90
10968;DHT22;5536;49.602;10.980;2023-05-29T03:37:30;12.10;99.90
10968;DHT22;5536;49.602;10.980;2023-05-29T03:39:57;12.20;99.90
10968;DHT22;5536;49.602;10.980;2023-05-29T03:42:24;12.20;99.90
10968;DHT22;5536;49.602;10.980;2023-05-29T03:44:53;12.30;99.90
10968;DHT22;5536;49.602;10.980;2023-05-29T03:47:20;12.20;99.90
10968;DHT22;5536;49.602;10.980;2023-05-29T03:49:47;12.10;99.90
10968;DHT22;5536;49.602;10.980;2023-05-29T03:52:14;12.00;99.90
10968;DHT22;5536;49.602;10.980;2023-05-29T03:54:41;12.00;99.90
10968;DHT22;5536;49.602;10.980;2023-05-29T03:57:07;12.10;99.90
10968;DHT22;5536;49.602;10.980;2023-05-29T03:59:35;12.00;99.90
10968;DHT22;5536;49.602;10.980;2023-05-29T04:02:03;12.00;99.90
10968;DHT22;5536;49.602;10.980;2023-05-29T04:04:30;12.10;99.90
10968;DHT22;5536;49.602;10.980;2023-05-29T04:06:57;12.10;99.90
10968;DHT22;5536;49.602;10.980;2023-05-29T04:09:24;12.10;99.90
10968;DHT22;5536;49.602;10.980;2023-05-29T04:11:51;12.20;99.90
10968;DHT22;5536;49.602;10.980;2023-05-29T04:14:20;12.20;99.90
10968;DHT22;5536;49.602;10.980;2023-05-29T04:16:47;12.10;99.90
10968;DHT22;5536;49.602;10.980;2023-05-29T04:19:15;12.10;99.90
10968;DHT22;5536;49.602;10.980;2023-05-29T04:21:42;12.20;99.90
10968;DHT22;5536;49.602;10.980;2023-05-29T04:24:09;12.30;99.90
10968;DHT22;5536;49.602;10.980;2023-05-29T04:26:36;12.20;99.90
10968;DHT22;5536;49.602;10.980;2023-05-29T04:29:06;12.20;99.90
10968;DHT22;5536;49.602;10.980;2023-05-29T04:31:33;12.10;99.90
10968;DHT22;5536;49.602;10.980;2023-05-29T04:34:02;12.20;99.90
10968;DHT22;5536;49.602;10.980;2023-05-29T04:36:31;12.30;99.90
10968;DHT22;5536;49.602;10.980;2023-05-29T04:38:59;12.40;99.90
10968;DHT22;5536;49.602;10.980;2023-05-29T04:41:26;12.40;99.90
10968;DHT22;5536;49.602;10.980;2023-05-29T04:43:57;12.40;99.90
10968;DHT22;5536;49.602;10.980;2023-05-29T04:46:24;12.60;99.90
10968;DHT22;5536;49.602;10.980;2023-05-29T04:48:51;12.70;99.90
10968;DHT22;5536;49.602;10.980;2023-05-29T04:51:19;12.80;99.90
10968;DHT22;5536;49.602;10.980;2023-05-29T04:53:49;13.00;99.90
10968;DHT22;5536;49.602;10.980;2023-05-29T04:56:17;13.10;99.90
10968;DHT22;5536;49.602;10.980;2023-05-29T04:58:44;13.10;99.90
10968;DHT22;5536;49.602;10.980;2023-05-29T05:01:11;13.10;99.90
10968;DHT22;5536;49.602;10.980;2023-05-29T05:03:40;13.00;99.90
10968;DHT22;5536;49.602;10.980;2023-05-29T05:06:07;13.00;99.90
10968;DHT22;5536;49.602;10.980;2023-05-29T05:08:34;13.00;99.90
10968;DHT22;5536;49.602;10.980;2023-05-29T05:11:03;13.20;99.90
10968;DHT22;5536;49.602;10.980;2023-05-29T05:13:30;13.20;99.90
10968;DHT22;5536;49.602;10.980;2023-05-29T05:15:57;13.30;99.90
10968;DHT22;5536;49.602;10.980;2023-05-29T05:18:24;13.30;99.90
10968;DHT22;5536;49.602;10.980;2023-05-29T05:20:50;13.40;99.90
10968;DHT22;5536;49.602;10.980;2023-05-29T05:23:17;13.50;99.90
10968;DHT22;5536;49.602;10.980;2023-05-29T05:25:44;13.50;99.90
10968;DHT22;5536;49.602;10.980;2023-05-29T05:28:13;13.50;99.90
10968;DHT22;5536;49.602;10.980;2023-05-29T05:30:40;13.60;99.90
10968;DHT22;5536;49.602;10.980;2023-05-29T05:33:07;13.70;99.90
10968;DHT22;5536;49.602;10.980;2023-05-29T05:35:34;13.70;99.90
10968;DHT22;5536;49.602;10.980;2023-05-29T05:38:01;13.80;99.90
10968;DHT22;5536;49.602;10.980;2023-05-29T05:40:28;14.00;99.90
10968;DHT22;5536;49.602;10.980;2023-05-29T05:42:55;14.10;99.90
10968;DHT22;5536;49.602;10.980;2023-05-29T05:45:24;14.10;99.90
10968;DHT22;5536;49.602;10.980;2023-05-29T05:47:50;14.10;99.90
10968;DHT22;5536;49.602;10.980;2023-05-29T05:50:17;14.20;99.90
10968;DHT22;5536;49.602;10.980;2023-05-29T05:52:44;14.30;99.90
10968;DHT22;5536;49.602;10.980;2023-05-29T05:55:12;14.40;99.90
10968;DHT22;5536;49.602;10.980;2023-05-29T05:57:38;14.50;99.90
10968;DHT22;5536;49.602;10.980;2023-05-29T06:00:06;14.50;99.90
10968;DHT22;5536;49.602;10.980;2023-05-29T06:02:38;14.70;99.90
10968;DHT22;5536;49.602;10.980;2023-05-29T06:05:08;14.90;99.90
10968;DHT22;5536;49.602;10.980;2023-05-29T06:07:35;14.90;99.90
10968;DHT22;5536;49.602;10.980;2023-05-29T06:10:02;14.90;99.90
10968;DHT22;5536;49.602;10.980;2023-05-29T06:12:30;15.00;99.90
10968;DHT22;5536;49.602;10.980;2023-05-29T06:14:57;15.00;99.90
10968;DHT22;5536;49.602;10.980;2023-05-29T06:17:24;15.00;99.90
10968;DHT22;5536;49.602;10.980;2023-05-29T06:19:52;15.10;99.90
10968;DHT22;5536;49.602;10.980;2023-05-29T06:22:20;15.20;99.90
10968;DHT22;5536;49.602;10.980;2023-05-29T06:24:47;15.30;99.90
10968;DHT22;5536;49.602;10.980;2023-05-29T06:27:14;15.40;99.90
10968;DHT22;5536;49.602;10.980;2023-05-29T06:29:41;15.50;99.90
10968;DHT22;5536;49.602;10.980;2023-05-29T06:32:08;15.60;99.90
10968;DHT22;5536;49.602;10.980;2023-05-29T06:34:35;15.70;99.90
10968;DHT22;5536;49.602;10.980;2023-05-29T06:37:03;15.80;99.90
10968;DHT22;5536;49.602;10.980;2023-05-29T06:39:31;15.90;99.90
10968;DHT22;5536;49.602;10.980;2023-05-29T06:41:58;16.00;99.90
10968;DHT22;5536;49.602;10.980;2023-05-29T06:44:24;16.10;99.90
10968;DHT22;5536;49.602;10.980;2023-05-29T06:46:52;16.10;99.90
10968;DHT22;5536;49.602;10.980;2023-05-29T06:49:18;16.20;99.90
10968;DHT22;5536;49.602;10.980;2023-05-29T06:51:45;16.30;99.90
10968;DHT22;5536;49.602;10.980;2023-05-29T06:54:14;16.40;99.90
10968;DHT22;5536;49.602;10.980;2023-05-29T06:56:40;16.40;99.90
10968;DHT22;5536;49.602;10.980;2023-05-29T06:59:08;16.50;99.90
10968;DHT22;5536;49.602;10.980;2023-05-29T07:01:35;16.60;99.90
10968;DHT22;5536;49.602;10.980;2023-05-29T07:04:02;16.60;99.90
10968;DHT22;5536;49.602;10.980;2023-05-29T07:06:29;16.70;99.90
10968;DHT22;5536;49.602;10.980;2023-05-29T07:08:56;16.80;99.90
10968;DHT22;5536;49.602;10.980;2023-05-29T07:11:24;16.90;99.90
10968;DHT22;5536;49.602;10.980;2023-05-29T07:13:53;17.00;99.90
10968;DHT22;5536;49.602;10.980;2023-05-29T07:16:20;17.20;99.90
10968;DHT22;5536;49.602;10.980;2023-05-29T07:18:47;17.30;99.90
10968;DHT22;5536;49.602;10.980;2023-05-29T07:21:14;17.40;99.90
10968;DHT22;5536;49.602;10.980;2023-05-29T07:23:41;17.60;99.90
10968;DHT22;5536;49.602;10.980;2023-05-29T07:26:07;17.70;99.90
10968;DHT22;5536;49.602;10.980;2023-05-29T07:28:36;17.70;99.90
10968;DHT22;5536;49.602;10.980;2023-05-29T07:31:03;17.70;99.90
10968;DHT22;5536;49.602;10.980;2023-05-29T07:33:30;17.70;99.90
10968;DHT22;5536;49.602;10.980;2023-05-29T07:35:57;17.70;99.90
10968;DHT22;5536;49.602;10.980;2023-05-29T07:38:24;17.80;99.90
10968;DHT22;5536;49.602;10.980;2023-05-29T07:40:51;18.00;99.90
10968;DHT22;5536;49.602;10.980;2023-05-29T07:43:18;18.10;99.90
10968;DHT22;5536;49.602;10.980;2023-05-29T07:45:46;18.20;99.90
10968;DHT22;5536;49.602;10.980;2023-05-29T07:48:13;18.30;99.90
10968;DHT22;5536;49.602;10.980;2023-05-29T07:50:40;18.40;99.90
10968;DHT22;5536;49.602;10.980;2023-05-29T07:53:07;18.50;99.90
10968;DHT22;5536;49.602;10.980;2023-05-29T07:55:34;18.70;99.90
10968;DHT22;5536;49.602;10.980;2023-05-29T07:58:01;18.80;99.90
10968;DHT22;5536;49.602;10.980;2023-05-29T08:00:28;18.90;99.90
10968;DHT22;5536;49.602;10.980;2023-05-29T08:02:57;18.90;99.90
10968;DHT22;5536;49.602;10.980;2023-05-29T08:05:24;19.00;99.90
10968;DHT22;5536;49.602;10.980;2023-05-29T08:07:51;19.20;99.90
10968;DHT22;5536;49.602;10.980;2023-05-29T08:10:18;19.30;99.90
10968;DHT22;5536;49.602;10.980;2023-05-29T08:12:45;19.50;99.90
10968;DHT22;5536;49.602;10.980;2023-05-29T08:15:12;19.70;99.90
10968;DHT22;5536;49.602;10.980;2023-05-29T08:17:39;19.70;99.90
10968;DHT22;5536;49.602;10.980;2023-05-29T08:20:08;19.70;99.90
10968;DHT22;5536;49.602;10.980;2023-05-29T08:22:36;19.80;99.90
10968;DHT22;5536;49.602;10.980;2023-05-29T08:25:03;19.90;99.90
10968;DHT22;5536;49.602;10.980;2023-05-29T08:27:31;19.90;99.90
10968;DHT22;5536;49.602;10.980;2023-05-29T08:29:58;19.90;99.90
10968;DHT22;5536;49.602;10.980;2023-05-29T08:32:25;19.90;99.90
10968;DHT22;5536;49.602;10.980;2023-05-29T08:34:51;20.10;99.90
10968;DHT22;5536;49.602;10.980;2023-05-29T08:37:20;20.10;99.90
10968;DHT22;5536;49.602;10.980;2023-05-29T08:39:47;20.20;99.90
10968;DHT22;5536;49.602;10.980;2023-05-29T08:42:20;20.40;99.90
10968;DHT22;5536;49.602;10.980;2023-05-29T08:44:48;20.40;99.90
10968;DHT22;5536;49.602;10.980;2023-05-29T08:47:16;20.40;99.90
10968;DHT22;5536;49.602;10.980;2023-05-29T08:49:49;20.50;99.90
10968;DHT22;5536;49.602;10.980;2023-05-29T08:52:22;20.60;99.90
10968;DHT22;5536;49.602;10.980;2023-05-29T08:54:49;20.70;99.90
10968;DHT22;5536;49.602;10.980;2023-05-29T08:57:17;20.70;99.90
10968;DHT22;5536;49.602;10.980;2023-05-29T08:59:44;20.80;99.90
10968;DHT22;5536;49.602;10.980;2023-05-29T09:02:13;20.90;99.90
10968;DHT22;5536;49.602;10.980;2023-05-29T09:04:41;20.90;99.90
10968;DHT22;5536;49.602;10.980;2023-05-29T09:07:10;21.00;99.90
10968;DHT22;5536;49.602;10.980;2023-05-29T09:09:39;21.00;99.90
10968;DHT22;5536;49.602;10.980;2023-05-29T09:12:07;21.20;99.90
10968;DHT22;5536;49.602;10.980;2023-05-29T09:14:36;21.10;99.90
10968;DHT22;5536;49.602;10.980;2023-05-29T09:17:04;21.10;99.90
10968;DHT22;5536;49.602;10.980;2023-05-29T09:19:32;21.10;99.90
10968;DHT22;5536;49.602;10.980;2023-05-29T09:22:04;21.30;99.90
10968;DHT22;5536;49.602;10.980;2023-05-29T09:24:34;21.30;99.90
10968;DHT22;5536;49.602;10.980;2023-05-29T09:27:04;21.50;99.90
10968;DHT22;5536;49.602;10.980;2023-05-29T09:29:35;21.50;99.90
10968;DHT22;5536;49.602;10.980;2023-05-29T09:32:06;21.50;99.90
10968;DHT22;5536;49.602;10.980;2023-05-29T09:34:34;21.50;99.90
10968;DHT22;5536;49.602;10.980;2023-05-29T09:37:01;21.60;99.90
10968;DHT22;5536;49.602;10.980;2023-05-29T09:39:34;21.70;99.90
10968;DHT22;5536;49.602;10.980;2023-05-29T09:42:04;21.80;99.90
10968;DHT22;5536;49.602;10.980;2023-05-29T09:44:31;21.90;99.90
10968;DHT22;5536;49.602;10.980;2023-05-29T09:46:58;22.00;99.90
10968;DHT22;5536;49.602;10.980;2023-05-29T09:49:26;22.00;99.90
10968;DHT22;5536;49.602;10.980;2023-05-29T09:51:54;22.00;99.90
10968;DHT22;5536;49.602;10.980;2023-05-29T09:54:21;22.00;99.90
10968;DHT22;5536;49.602;10.980;2023-05-29T09:56:50;22.00;99.90
10968;DHT22;5536;49.602;10.980;2023-05-29T09:59:19;22.10;99.90
10968;DHT22;5536;49.602;10.980;2023-05-29T10:01:47;22.20;99.90
10968;DHT22;5536;49.602;10.980;2023-05-29T10:04:13;22.30;99.90
10968;DHT22;5536;49.602;10.980;2023-05-29T10:06:44;22.20;99.90
10968;DHT22;5536;49.602;10.980;2023-05-29T10:09:12;22.40;99.90
10968;DHT22;5536;49.602;10.980;2023-05-29T10:11:43;22.60;99.90
10968;DHT22;5536;49.602;10.980;2023-05-29T10:14:16;22.60;99.90
10968;DHT22;5536;49.602;10.980;2023-05-29T10:16:47;22.80;99.90
10968;DHT22;5536;49.602;10.980;2023-05-29T10:19:26;22.90;99.90
10968;DHT22;5536;49.602;10.980;2023-05-29T10:21:54;23.10;99.90
10968;DHT22;5536;49.602;10.980;2023-05-29T10:24:23;23.20;99.90
10968;DHT22;5536;49.602;10.980;2023-05-29T10:26:51;23.20;99.90
10968;DHT22;5536;49.602;10.980;2023-05-29T10:29:23;23.40;99.90
10968;DHT22;5536;49.602;10.980;2023-05-29T10:32:05;23.30;99.90
10968;DHT22;5536;49.602;10.980;2023-05-29T10:34:41;23.30;99.90
10968;DHT22;5536;49.602;10.980;2023-05-29T10:37:18;23.40;99.90
10968;DHT22;5536;49.602;10.980;2023-05-29T10:39:47;23.50;99.90
10968;DHT22;5536;49.602;10.980;2023-05-29T10:42:43;23.50;99.90
10968;DHT22;5536;49.602;10.980;2023-05-29T10:45:11;23.90;99.90
10968;DHT22;5536;49.602;10.980;2023-05-29T10:48:40;23.90;99.90
10968;DHT22;5536;49.602;10.980;2023-05-29T10:51:08;24.10;99.90
10968;DHT22;5536;49.602;10.980;2023-05-29T10:53:36;24.40;99.90
10968;DHT22;5536;49.602;10.980;2023-05-29T10:56:10;24.70;99.90
10968;DHT22;5536;49.602;10.980;2023-05-29T10:58:41;24.60;99.90
10968;DHT22;5536;49.602;10.980;2023-05-29T11:01:08;24.90;99.90
10968;DHT22;5536;49.602;10.980;2023-05-29T11:03:37;25.00;99.90
10968;DHT22;5536;49.602;10.980;2023-05-29T11:06:05;25.20;99.90
10968;DHT22;5536;49.602;10.980;2023-05-29T11:08:34;25.30;99.90
10968;DHT22;5536;49.602;10.980;2023-05-29T11:11:02;25.50;99.90
10968;DHT22;5536;49.602;10.980;2023-05-29T11:13:33;25.80;99.90
10968;DHT22;5536;49.602;10.980;2023-05-29T11:16:13;26.00;99.90
10968;DHT22;5536;49.602;10.980;2023-05-29T11:18:46;26.10;99.90
10968;DHT22;5536;49.602;10.980;2023-05-29T11:24:06;26.50;99.90
10968;DHT22;5536;49.602;10.980;2023-05-29T11:26:34;26.30;99.90
10968;DHT22;5536;49.602;10.980;2023-05-29T11:29:04;26.60;99.90
10968;DHT22;5536;49.602;10.980;2023-05-29T11:31:33;26.70;99.90
10968;DHT22;5536;49.602;10.980;2023-05-29T11:34:02;27.00;99.90
10968;DHT22;5536;49.602;10.980;2023-05-29T11:36:32;27.40;99.90
10968;DHT22;5536;49.602;10.980;2023-05-29T11:39:01;27.50;99.90
10968;DHT22;5536;49.602;10.980;2023-05-29T11:41:29;28.20;99.90
10968;DHT22;5536;49.602;10.980;2023-05-29T11:43:57;28.60;99.90
10968;DHT22;5536;49.602;10.980;2023-05-29T11:46:25;28.70;99.90
10968;DHT22;5536;49.602;10.980;2023-05-29T11:48:53;29.00;99.90
10968;DHT22;5536;49.602;10.980;2023-05-29T11:51:22;28.60;99.90
10968;DHT22;5536;49.602;10.980;2023-05-29T11:53:50;28.90;99.90
10968;DHT22;5536;49.602;10.980;2023-05-29T11:56:23;28.80;99.90
10968;DHT22;5536;49.602;10.980;2023-05-29T11:58:51;28.70;99.90
10968;DHT22;5536;49.602;10.980;2023-05-29T12:01:21;29.50;99.90
10968;DHT22;5536;49.602;10.980;2023-05-29T12:03:49;29.90;99.90
10968;DHT22;5536;49.602;10.980;2023-05-29T12:06:17;29.70;99.90
10968;DHT22;5536;49.602;10.980;2023-05-29T12:08:59;29.90;99.90
10968;DHT22;5536;49.602;10.980;2023-05-29T12:11:26;29.90;99.90
10968;DHT22;5536;49.602;10.980;2023-05-29T12:13:58;30.00;99.90
10968;DHT22;5536;49.602;10.980;2023-05-29T12:16:27;30.00;99.90
10968;DHT22;5536;49.602;10.980;2023-05-29T12:18:54;30.10;99.90
10968;DHT22;5536;49.602;10.980;2023-05-29T12:21:22;30.10;99.90
10968;DHT22;5536;49.602;10.980;2023-05-29T12:23:52;30.30;99.90
10968;DHT22;5536;49.602;10.980;2023-05-29T12:26:23;29.90;99.90
10968;DHT22;5536;49.602;10.980;2023-05-29T12:28:51;29.90;99.90
10968;DHT22;5536;49.602;10.980;2023-05-29T12:31:28;29.50;99.90
10968;DHT22;5536;49.602;10.980;2023-05-29T12:33:59;30.20;99.90
10968;DHT22;5536;49.602;10.980;2023-05-29T12:36:26;30.30;99.90
10968;DHT22;5536;49.602;10.980;2023-05-29T12:38:53;30.40;99.90
10968;DHT22;5536;49.602;10.980;2023-05-29T12:41:29;30.20;99.90
10968;DHT22;5536;49.602;10.980;2023-05-29T12:43:57;30.50;99.90
10968;DHT22;5536;49.602;10.980;2023-05-29T12:46:24;30.40;99.90
10968;DHT22;5536;49.602;10.980;2023-05-29T12:48:53;30.40;99.90
10968;DHT22;5536;49.602;10.980;2023-05-29T12:51:23;30.70;99.90
10968;DHT22;5536;49.602;10.980;2023-05-29T12:53:51;30.90;99.90
10968;DHT22;5536;49.602;10.980;2023-05-29T12:56:21;31.40;99.90
10968;DHT22;5536;49.602;10.980;2023-05-29T12:58:50;31.30;99.90
10968;DHT22;5536;49.602;10.980;2023-05-29T13:01:18;31.00;99.90
10968;DHT22;5536;49.602;10.980;2023-05-29T13:03:45;31.50;99.90
10968;DHT22;5536;49.602;10.980;2023-05-29T13:06:13;31.20;99.90
10968;DHT22;5536;49.602;10.980;2023-05-29T13:08:40;31.20;99.90
10968;DHT22;5536;49.602;10.980;2023-05-29T13:11:07;31.40;99.90
10968;DHT22;5536;49.602;10.980;2023-05-29T13:13:34;30.90;99.90
10968;DHT22;5536;49.602;10.980;2023-05-29T13:16:03;31.40;99.90
10968;DHT22;5536;49.602;10.980;2023-05-29T13:18:31;32.10;99.90
10968;DHT22;5536;49.602;10.980;2023-05-29T13:20:59;32.00;99.90
10968;DHT22;5536;49.602;10.980;2023-05-29T13:23:26;31.90;99.90
10968;DHT22;5536;49.602;10.980;2023-05-29T13:25:53;31.10;99.90
10968;DHT22;5536;49.602;10.980;2023-05-29T13:28:20;31.80;99.90
10968;DHT22;5536;49.602;10.980;2023-05-29T13:30:49;32.10;99.90
10968;DHT22;5536;49.602;10.980;2023-05-29T13:33:18;32.90;99.90
10968;DHT22;5536;49.602;10.980;2023-05-29T13:35:46;32.40;99.90
10968;DHT22;5536;49.602;10.980;2023-05-29T13:38:13;31.90;99.90
10968;DHT22;5536;49.602;10.980;2023-05-29T13:40:40;31.80;99.90
10968;DHT22;5536;49.602;10.980;2023-05-29T13:43:07;32.00;99.90
10968;DHT22;5536;49.602;10.980;2023-05-29T13:45:35;32.30;99.90
10968;DHT22;5536;49.602;10.980;2023-05-29T13:48:02;32.10;99.90
10968;DHT22;5536;49.602;10.980;2023-05-29T13:50:32;31.90;99.90
10968;DHT22;5536;49.602;10.980;2023-05-29T13:53:00;31.60;99.90
10968;DHT22;5536;49.602;10.980;2023-05-29T13:55:27;32.00;99.90
10968;DHT22;5536;49.602;10.980;2023-05-29T13:57:54;31.60;99.90
10968;DHT22;5536;49.602;10.980;2023-05-29T14:00:23;32.50;99.90
10968;DHT22;5536;49.602;10.980;2023-05-29T14:02:50;32.10;99.90
10968;DHT22;5536;49.602;10.980;2023-05-29T14:05:17;32.60;99.90
10968;DHT22;5536;49.602;10.980;2023-05-29T14:07:45;32.80;99.90
10968;DHT22;5536;49.602;10.980;2023-05-29T14:10:12;32.50;99.90
10968;DHT22;5536;49.602;10.980;2023-05-29T14:12:39;32.30;99.90
10968;DHT22;5536;49.602;10.980;2023-05-29T14:15:08;32.10;99.90
10968;DHT22;5536;49.602;10.980;2023-05-29T14:17:35;32.30;99.90
10968;DHT22;5536;49.602;10.980;2023-05-29T14:20:03;32.00;99.90
10968;DHT22;5536;49.602;10.980;2023-05-29T14:22:34;33.00;99.90
10968;DHT22;5536;49.602;10.980;2023-05-29T14:25:04;33.00;99.90
10968;DHT22;5536;49.602;10.980;2023-05-29T14:27:31;33.00;99.90
10968;DHT22;5536;49.602;10.980;2023-05-29T14:29:59;33.10;99.90
10968;DHT22;5536;49.602;10.980;2023-05-29T14:32:26;33.70;99.90
10968;DHT22;5536;49.602;10.980;2023-05-29T14:34:53;32.70;99.90
10968;DHT22;5536;49.602;10.980;2023-05-29T14:37:23;32.90;99.90
10968;DHT22;5536;49.602;10.980;2023-05-29T14:39:50;31.80;99.90
10968;DHT22;5536;49.602;10.980;2023-05-29T14:42:18;32.00;99.90
10968;DHT22;5536;49.602;10.980;2023-05-29T14:44:46;32.10;99.90
10968;DHT22;5536;49.602;10.980;2023-05-29T14:47:13;32.60;99.90
10968;DHT22;5536;49.602;10.980;2023-05-29T14:49:40;31.80;99.90
10968;DHT22;5536;49.602;10.980;2023-05-29T14:52:07;32.10;99.90
10968;DHT22;5536;49.602;10.980;2023-05-29T14:54:35;32.50;99.90
10968;DHT22;5536;49.602;10.980;2023-05-29T14:57:02;32.80;99.90
10968;DHT22;5536;49.602;10.980;2023-05-29T14:59:31;32.60;99.90
10968;DHT22;5536;49.602;10.980;2023-05-29T15:01:58;31.90;99.90
10968;DHT22;5536;49.602;10.980;2023-05-29T15:04:25;31.80;99.90
10968;DHT22;5536;49.602;10.980;2023-05-29T15:06:52;32.50;99.90
10968;DHT22;5536;49.602;10.980;2023-05-29T15:09:21;32.70;99.90
10968;DHT22;5536;49.602;10.980;2023-05-29T15:11:48;32.70;99.90
10968;DHT22;5536;49.602;10.980;2023-05-29T15:14:16;32.30;99.90
10968;DHT22;5536;49.602;10.980;2023-05-29T15:16:44;31.80;99.90
10968;DHT22;5536;49.602;10.980;2023-05-29T15:19:11;31.60;99.90
10968;DHT22;5536;49.602;10.980;2023-05-29T15:21:38;31.60;99.90
10968;DHT22;5536;49.602;10.980;2023-05-29T15:24:06;31.20;99.90
10968;DHT22;5536;49.602;10.980;2023-05-29T15:26:33;31.20;99.90
10968;DHT22;5536;49.602;10.980;2023-05-29T15:29:02;31.00;99.90
10968;DHT22;5536;49.602;10.980;2023-05-29T15:31:29;31.20;99.90
10968;DHT22;5536;49.602;10.980;2023-05-29T15:33:57;31.20;99.90
10968;DHT22;5536;49.602;10.980;2023-05-29T15:36:24;31.60;99.90
10968;DHT22;5536;49.602;10.980;2023-05-29T15:38:51;31.20;99.90